sensor_id;sensor_type;location;lat;lon;timestamp;P1;durP1;ratioP1;P2;durP2;ratioP2
51529;SDS011;37613;51.788;21.582;2023-07-13T00:01:16;6.20;;;5.30;;
51529;SDS011;37613;51.788;21.582;2023-07-13T00:05:22;7.60;;;5.80;;
51529;SDS011;37613;51.788;21.582;2023-07-13T00:09:27;9.40;;;5.90;;
51529;SDS011;37613;51.788;21.582;2023-07-13T00:13:29;7.90;;;5.70;;
51529;SDS011;37613;51.788;21.582;2023-07-13T00:17:35;8.80;;;5.60;;
51529;SDS011;37613;51.788;21.582;2023-07-13T00:21:48;8.10;;;5.90;;
51529;SDS011;37613;51.788;21.582;2023-07-13T00:25:57;8.80;;;6.30;;
51529;SDS011;37613;51.788;21.582;2023-07-13T00:29:59;7.80;;;5.70;;
51529;SDS011;37613;51.788;21.582;2023-07-13T00:34:02;6.40;;;5.40;;
51529;SDS011;37613;51.788;21.582;2023-07-13T00:38:13;7.10;;;5.50;;
51529;SDS011;37613;51.788;21.582;2023-07-13T00:42:16;6.90;;;5.80;;
51529;SDS011;37613;51.788;21.582;2023-07-13T00:50:31;6.00;;;5.40;;
51529;SDS011;37613;51.788;21.582;2023-07-13T00:54:37;7.50;;;6.20;;
51529;SDS011;37613;51.788;21.582;2023-07-13T00:58:42;8.50;;;5.60;;
51529;SDS011;37613;51.788;21.582;2023-07-13T01:02:45;7.80;;;6.00;;
51529;SDS011;37613;51.788;21.582;2023-07-13T01:06:53;6.30;;;5.70;;
51529;SDS011;37613;51.788;21.582;2023-07-13T01:10:56;7.10;;;6.00;;
51529;SDS011;37613;51.788;21.582;2023-07-13T01:15:00;9.70;;;5.40;;
51529;SDS011;37613;51.788;21.582;2023-07-13T01:19:15;7.40;;;5.80;;
51529;SDS011;37613;51.788;21.582;2023-07-13T01:23:25;7.40;;;6.30;;
51529;SDS011;37613;51.788;21.582;2023-07-13T01:27:46;6.30;;;5.70;;
51529;SDS011;37613;51.788;21.582;2023-07-13T01:31:51;10.10;;;6.10;;
51529;SDS011;37613;51.788;21.582;2023-07-13T01:35:53;7.30;;;6.20;;
51529;SDS011;37613;51.788;21.582;2023-07-13T01:44:26;10.00;;;6.70;;
51529;SDS011;37613;51.788;21.582;2023-07-13T01:48:34;10.10;;;6.20;;
51529;SDS011;37613;51.788;21.582;2023-07-13T01:52:38;9.50;;;7.50;;
51529;SDS011;37613;51.788;21.582;2023-07-13T01:56:42;7.70;;;5.60;;
51529;SDS011;37613;51.788;21.582;2023-07-13T02:00:51;6.50;;;5.70;;
51529;SDS011;37613;51.788;21.582;2023-07-13T02:04:53;7.00;;;6.30;;
51529;SDS011;37613;51.788;21.582;2023-07-13T02:08:55;6.30;;;5.70;;
51529;SDS011;37613;51.788;21.582;2023-07-13T02:13:09;7.50;;;6.10;;
51529;SDS011;37613;51.788;21.582;2023-07-13T02:22:37;7.50;;;6.00;;
51529;SDS011;37613;51.788;21.582;2023-07-13T02:26:48;8.80;;;5.80;;
51529;SDS011;37613;51.788;21.582;2023-07-13T02:31:09;8.90;;;6.00;;
51529;SDS011;37613;51.788;21.582;2023-07-13T02:35:22;6.30;;;5.70;;
51529;SDS011;37613;51.788;21.582;2023-07-13T02:39:24;11.10;;;8.20;;
51529;SDS011;37613;51.788;21.582;2023-07-13T02:43:30;12.10;;;7.90;;
51529;SDS011;37613;51.788;21.582;2023-07-13T02:47:47;15.60;;;10.00;;
51529;SDS011;37613;51.788;21.582;2023-07-13T02:52:07;11.20;;;8.30;;
51529;SDS011;37613;51.788;21.582;2023-07-13T02:56:15;10.20;;;8.40;;
51529;SDS011;37613;51.788;21.582;2023-07-13T03:04:51;11.00;;;7.80;;
51529;SDS011;37613;51.788;21.582;2023-07-13T03:09:07;9.50;;;7.40;;
51529;SDS011;37613;51.788;21.582;2023-07-13T03:13:22;10.10;;;7.30;;
51529;SDS011;37613;51.788;21.582;2023-07-13T03:17:34;7.90;;;6.20;;
51529;SDS011;37613;51.788;21.582;2023-07-13T03:21:38;14.40;;;7.20;;
51529;SDS011;37613;51.788;21.582;2023-07-13T03:25:41;7.70;;;6.40;;
51529;SDS011;37613;51.788;21.582;2023-07-13T03:29:43;8.00;;;6.40;;
51529;SDS011;37613;51.788;21.582;2023-07-13T03:33:57;9.30;;;6.70;;
51529;SDS011;37613;51.788;21.582;2023-07-13T03:37:59;10.40;;;6.50;;
51529;SDS011;37613;51.788;21.582;2023-07-13T03:42:01;8.90;;;6.60;;
51529;SDS011;37613;51.788;21.582;2023-07-13T03:46:06;10.20;;;7.20;;
51529;SDS011;37613;51.788;21.582;2023-07-13T03:50:11;9.30;;;5.80;;
51529;SDS011;37613;51.788;21.582;2023-07-13T03:54:13;6.60;;;5.60;;
51529;SDS011;37613;51.788;21.582;2023-07-13T03:58:35;6.00;;;5.40;;
51529;SDS011;37613;51.788;21.582;2023-07-13T04:02:56;11.90;;;5.50;;
51529;SDS011;37613;51.788;21.582;2023-07-13T04:07:04;10.90;;;5.70;;
51529;SDS011;37613;51.788;21.582;2023-07-13T04:11:07;7.60;;;5.30;;
51529;SDS011;37613;51.788;21.582;2023-07-13T04:15:11;7.90;;;5.70;;
51529;SDS011;37613;51.788;21.582;2023-07-13T04:19:19;10.60;;;5.90;;
51529;SDS011;37613;51.788;21.582;2023-07-13T04:23:34;8.70;;;5.90;;
51529;SDS011;37613;51.788;21.582;2023-07-13T04:27:36;7.70;;;5.50;;
51529;SDS011;37613;51.788;21.582;2023-07-13T04:31:53;9.70;;;6.10;;
51529;SDS011;37613;51.788;21.582;2023-07-13T04:35:55;7.10;;;5.90;;
51529;SDS011;37613;51.788;21.582;2023-07-13T04:39:58;8.30;;;6.70;;
51529;SDS011;37613;51.788;21.582;2023-07-13T04:44:02;6.80;;;6.20;;
51529;SDS011;37613;51.788;21.582;2023-07-13T04:48:05;6.90;;;5.70;;
51529;SDS011;37613;51.788;21.582;2023-07-13T04:52:10;7.40;;;6.10;;
51529;SDS011;37613;51.788;21.582;2023-07-13T04:56:13;8.50;;;6.80;;
51529;SDS011;37613;51.788;21.582;2023-07-13T05:00:15;8.90;;;7.30;;
51529;SDS011;37613;51.788;21.582;2023-07-13T05:04:17;12.70;;;8.60;;
51529;SDS011;37613;51.788;21.582;2023-07-13T05:08:19;11.40;;;8.10;;
51529;SDS011;37613;51.788;21.582;2023-07-13T05:12:21;14.10;;;9.80;;
51529;SDS011;37613;51.788;21.582;2023-07-13T05:16:24;11.60;;;8.70;;
51529;SDS011;37613;51.788;21.582;2023-07-13T05:20:29;10.90;;;8.60;;
51529;SDS011;37613;51.788;21.582;2023-07-13T05:24:31;9.80;;;8.30;;
51529;SDS011;37613;51.788;21.582;2023-07-13T05:28:34;11.20;;;8.90;;
51529;SDS011;37613;51.788;21.582;2023-07-13T05:32:38;12.40;;;8.70;;
51529;SDS011;37613;51.788;21.582;2023-07-13T05:36:41;10.40;;;9.00;;
51529;SDS011;37613;51.788;21.582;2023-07-13T05:40:50;13.10;;;9.20;;
51529;SDS011;37613;51.788;21.582;2023-07-13T05:44:55;11.50;;;10.00;;
51529;SDS011;37613;51.788;21.582;2023-07-13T05:49:00;10.60;;;9.00;;
51529;SDS011;37613;51.788;21.582;2023-07-13T05:53:02;11.40;;;9.50;;
51529;SDS011;37613;51.788;21.582;2023-07-13T05:57:05;10.60;;;9.10;;
51529;SDS011;37613;51.788;21.582;2023-07-13T06:01:09;9.50;;;8.60;;
51529;SDS011;37613;51.788;21.582;2023-07-13T06:05:13;9.90;;;8.90;;
51529;SDS011;37613;51.788;21.582;2023-07-13T06:09:20;11.60;;;8.80;;
51529;SDS011;37613;51.788;21.582;2023-07-13T06:14:07;10.30;;;8.60;;
51529;SDS011;37613;51.788;21.582;2023-07-13T06:18:28;9.10;;;8.00;;
51529;SDS011;37613;51.788;21.582;2023-07-13T06:22:45;10.70;;;8.30;;
51529;SDS011;37613;51.788;21.582;2023-07-13T06:27:41;11.90;;;8.70;;
51529;SDS011;37613;51.788;21.582;2023-07-13T06:33:06;12.70;;;9.00;;
51529;SDS011;37613;51.788;21.582;2023-07-13T06:37:53;11.40;;;9.20;;
51529;SDS011;37613;51.788;21.582;2023-07-13T06:42:27;11.30;;;9.20;;
51529;SDS011;37613;51.788;21.582;2023-07-13T06:46:42;16.30;;;9.10;;
51529;SDS011;37613;51.788;21.582;2023-07-13T06:55:46;11.00;;;8.80;;
51529;SDS011;37613;51.788;21.582;2023-07-13T07:00:06;9.20;;;8.30;;
51529;SDS011;37613;51.788;21.582;2023-07-13T07:04:31;8.90;;;8.00;;
51529;SDS011;37613;51.788;21.582;2023-07-13T07:14:05;11.50;;;8.50;;
51529;SDS011;37613;51.788;21.582;2023-07-13T07:18:07;10.30;;;8.10;;
51529;SDS011;37613;51.788;21.582;2023-07-13T07:22:09;8.80;;;8.00;;
51529;SDS011;37613;51.788;21.582;2023-07-13T07:26:11;10.20;;;8.10;;
51529;SDS011;37613;51.788;21.582;2023-07-13T07:30:22;11.30;;;8.30;;
51529;SDS011;37613;51.788;21.582;2023-07-13T07:34:24;7.60;;;6.80;;
51529;SDS011;37613;51.788;21.582;2023-07-13T07:38:26;10.80;;;8.10;;
51529;SDS011;37613;51.788;21.582;2023-07-13T07:42:28;16.10;;;8.00;;
51529;SDS011;37613;51.788;21.582;2023-07-13T07:46:38;13.10;;;9.10;;
51529;SDS011;37613;51.788;21.582;2023-07-13T07:50:53;9.60;;;8.10;;
51529;SDS011;37613;51.788;21.582;2023-07-13T07:54:55;10.60;;;8.80;;
51529;SDS011;37613;51.788;21.582;2023-07-13T07:59:02;10.40;;;9.20;;
51529;SDS011;37613;51.788;21.582;2023-07-13T08:03:04;11.80;;;9.20;;
51529;SDS011;37613;51.788;21.582;2023-07-13T08:07:10;15.20;;;9.90;;
51529;SDS011;37613;51.788;21.582;2023-07-13T08:11:15;13.20;;;8.20;;
51529;SDS011;37613;51.788;21.582;2023-07-13T08:15:20;10.00;;;8.20;;
51529;SDS011;37613;51.788;21.582;2023-07-13T08:19:30;9.90;;;8.00;;
51529;SDS011;37613;51.788;21.582;2023-07-13T08:23:32;9.20;;;7.90;;
51529;SDS011;37613;51.788;21.582;2023-07-13T08:27:50;10.50;;;7.40;;
51529;SDS011;37613;51.788;21.582;2023-07-13T08:31:52;10.60;;;7.20;;
51529;SDS011;37613;51.788;21.582;2023-07-13T08:35:59;11.80;;;8.20;;
51529;SDS011;37613;51.788;21.582;2023-07-13T08:40:02;11.80;;;7.40;;
51529;SDS011;37613;51.788;21.582;2023-07-13T08:44:13;9.20;;;7.80;;
51529;SDS011;37613;51.788;21.582;2023-07-13T08:48:35;8.70;;;7.20;;
51529;SDS011;37613;51.788;21.582;2023-07-13T08:52:43;8.30;;;7.00;;
51529;SDS011;37613;51.788;21.582;2023-07-13T08:56:52;7.60;;;6.10;;
51529;SDS011;37613;51.788;21.582;2023-07-13T09:18:53;8.70;;;6.60;;
51529;SDS011;37613;51.788;21.582;2023-07-13T09:23:04;9.70;;;6.70;;
51529;SDS011;37613;51.788;21.582;2023-07-13T09:27:22;7.20;;;6.30;;
51529;SDS011;37613;51.788;21.582;2023-07-13T09:31:37;7.20;;;6.30;;
51529;SDS011;37613;51.788;21.582;2023-07-13T09:35:46;7.00;;;6.30;;
51529;SDS011;37613;51.788;21.582;2023-07-13T09:39:48;8.40;;;6.80;;
51529;SDS011;37613;51.788;21.582;2023-07-13T09:44:06;9.90;;;7.00;;
51529;SDS011;37613;51.788;21.582;2023-07-13T09:48:16;10.30;;;6.00;;
51529;SDS011;37613;51.788;21.582;2023-07-13T09:52:22;5.60;;;5.10;;
51529;SDS011;37613;51.788;21.582;2023-07-13T09:56:28;6.00;;;5.40;;
51529;SDS011;37613;51.788;21.582;2023-07-13T10:00:31;6.90;;;6.20;;
51529;SDS011;37613;51.788;21.582;2023-07-13T10:04:36;10.00;;;6.20;;
51529;SDS011;37613;51.788;21.582;2023-07-13T10:08:56;7.70;;;5.10;;
51529;SDS011;37613;51.788;21.582;2023-07-13T10:12:59;7.80;;;5.60;;
51529;SDS011;37613;51.788;21.582;2023-07-13T10:17:12;6.60;;;5.30;;
51529;SDS011;37613;51.788;21.582;2023-07-13T10:21:16;7.10;;;5.50;;
51529;SDS011;37613;51.788;21.582;2023-07-13T10:25:28;6.90;;;5.80;;
51529;SDS011;37613;51.788;21.582;2023-07-13T10:29:38;7.00;;;5.60;;
51529;SDS011;37613;51.788;21.582;2023-07-13T10:33:44;6.40;;;5.70;;
51529;SDS011;37613;51.788;21.582;2023-07-13T10:37:49;6.70;;;5.60;;
51529;SDS011;37613;51.788;21.582;2023-07-13T10:42:00;7.50;;;5.90;;
51529;SDS011;37613;51.788;21.582;2023-07-13T10:46:08;10.80;;;6.00;;
51529;SDS011;37613;51.788;21.582;2023-07-13T10:50:24;9.10;;;5.30;;
51529;SDS011;37613;51.788;21.582;2023-07-13T10:58:39;8.10;;;6.20;;
51529;SDS011;37613;51.788;21.582;2023-07-13T11:02:43;9.70;;;6.50;;
51529;SDS011;37613;51.788;21.582;2023-07-13T11:07:20;7.30;;;5.00;;
51529;SDS011;37613;51.788;21.582;2023-07-13T11:11:35;6.10;;;5.00;;
51529;SDS011;37613;51.788;21.582;2023-07-13T11:15:47;6.30;;;5.00;;
51529;SDS011;37613;51.788;21.582;2023-07-13T11:19:53;4.90;;;4.40;;
51529;SDS011;37613;51.788;21.582;2023-07-13T11:28:21;6.40;;;4.80;;
51529;SDS011;37613;51.788;21.582;2023-07-13T11:32:31;6.10;;;5.50;;
51529;SDS011;37613;51.788;21.582;2023-07-13T11:36:36;6.30;;;4.90;;
51529;SDS011;37613;51.788;21.582;2023-07-13T11:40:44;11.90;;;8.50;;
51529;SDS011;37613;51.788;21.582;2023-07-13T11:44:54;10.70;;;8.80;;
51529;SDS011;37613;51.788;21.582;2023-07-13T11:48:57;8.70;;;7.40;;
51529;SDS011;37613;51.788;21.582;2023-07-13T11:53:00;9.10;;;8.20;;
51529;SDS011;37613;51.788;21.582;2023-07-13T12:01:46;10.40;;;7.50;;
51529;SDS011;37613;51.788;21.582;2023-07-13T12:06:01;9.20;;;8.30;;
51529;SDS011;37613;51.788;21.582;2023-07-13T12:14:33;9.70;;;8.70;;
51529;SDS011;37613;51.788;21.582;2023-07-13T12:18:47;9.60;;;8.60;;
51529;SDS011;37613;51.788;21.582;2023-07-13T12:22:50;9.10;;;8.10;;
51529;SDS011;37613;51.788;21.582;2023-07-13T12:27:05;8.30;;;7.30;;
51529;SDS011;37613;51.788;21.582;2023-07-13T12:31:18;6.80;;;4.40;;
51529;SDS011;37613;51.788;21.582;2023-07-13T12:35:41;4.60;;;3.70;;
51529;SDS011;37613;51.788;21.582;2023-07-13T12:39:47;5.10;;;3.50;;
51529;SDS011;37613;51.788;21.582;2023-07-13T12:43:53;11.50;;;4.50;;
51529;SDS011;37613;51.788;21.582;2023-07-13T12:47:58;7.70;;;4.60;;
51529;SDS011;37613;51.788;21.582;2023-07-13T12:52:17;7.30;;;4.90;;
51529;SDS011;37613;51.788;21.582;2023-07-13T12:56:24;6.30;;;5.10;;
51529;SDS011;37613;51.788;21.582;2023-07-13T13:00:35;5.80;;;4.70;;
51529;SDS011;37613;51.788;21.582;2023-07-13T13:04:40;6.70;;;5.80;;
51529;SDS011;37613;51.788;21.582;2023-07-13T13:08:46;8.70;;;5.70;;
51529;SDS011;37613;51.788;21.582;2023-07-13T13:12:55;10.00;;;6.10;;
51529;SDS011;37613;51.788;21.582;2023-07-13T13:17:04;10.70;;;6.20;;
51529;SDS011;37613;51.788;21.582;2023-07-13T13:21:23;7.30;;;5.70;;
51529;SDS011;37613;51.788;21.582;2023-07-13T13:25:30;7.70;;;5.80;;
51529;SDS011;37613;51.788;21.582;2023-07-13T13:29:39;8.20;;;5.30;;
51529;SDS011;37613;51.788;21.582;2023-07-13T13:33:43;7.20;;;5.10;;
51529;SDS011;37613;51.788;21.582;2023-07-13T13:37:47;6.40;;;5.10;;
51529;SDS011;37613;51.788;21.582;2023-07-13T13:41:57;6.70;;;4.30;;
51529;SDS011;37613;51.788;21.582;2023-07-13T13:46:05;8.60;;;4.30;;
51529;SDS011;37613;51.788;21.582;2023-07-13T13:50:18;8.50;;;4.50;;
51529;SDS011;37613;51.788;21.582;2023-07-13T13:54:34;6.30;;;4.90;;
51529;SDS011;37613;51.788;21.582;2023-07-13T13:58:39;6.10;;;4.90;;
51529;SDS011;37613;51.788;21.582;2023-07-13T14:02:45;5.80;;;4.80;;
51529;SDS011;37613;51.788;21.582;2023-07-13T14:06:53;5.90;;;4.80;;
51529;SDS011;37613;51.788;21.582;2023-07-13T14:10:58;6.10;;;4.60;;
51529;SDS011;37613;51.788;21.582;2023-07-13T14:15:13;6.90;;;5.00;;
51529;SDS011;37613;51.788;21.582;2023-07-13T14:19:28;6.30;;;4.60;;
51529;SDS011;37613;51.788;21.582;2023-07-13T14:23:35;8.50;;;5.70;;
51529;SDS011;37613;51.788;21.582;2023-07-13T14:27:41;6.20;;;5.00;;
51529;SDS011;37613;51.788;21.582;2023-07-13T14:31:51;8.00;;;6.30;;
51529;SDS011;37613;51.788;21.582;2023-07-13T14:36:04;6.20;;;5.50;;
51529;SDS011;37613;51.788;21.582;2023-07-13T14:40:32;8.60;;;5.70;;
51529;SDS011;37613;51.788;21.582;2023-07-13T14:44:57;6.40;;;5.10;;
51529;SDS011;37613;51.788;21.582;2023-07-13T14:53:49;8.00;;;6.00;;
51529;SDS011;37613;51.788;21.582;2023-07-13T14:58:05;10.00;;;6.40;;
51529;SDS011;37613;51.788;21.582;2023-07-13T15:02:19;8.20;;;6.30;;
51529;SDS011;37613;51.788;21.582;2023-07-13T15:06:34;9.90;;;6.60;;
51529;SDS011;37613;51.788;21.582;2023-07-13T15:11:02;9.90;;;7.80;;
51529;SDS011;37613;51.788;21.582;2023-07-13T15:15:20;8.90;;;5.70;;
51529;SDS011;37613;51.788;21.582;2023-07-13T15:19:28;6.90;;;6.10;;
51529;SDS011;37613;51.788;21.582;2023-07-13T15:23:31;7.70;;;6.10;;
51529;SDS011;37613;51.788;21.582;2023-07-13T15:27:33;9.30;;;7.10;;
51529;SDS011;37613;51.788;21.582;2023-07-13T15:31:40;7.10;;;5.90;;
51529;SDS011;37613;51.788;21.582;2023-07-13T15:35:49;9.10;;;7.80;;
51529;SDS011;37613;51.788;21.582;2023-07-13T15:40:04;10.40;;;8.50;;
51529;SDS011;37613;51.788;21.582;2023-07-13T15:44:28;12.00;;;9.70;;
51529;SDS011;37613;51.788;21.582;2023-07-13T15:48:33;12.50;;;9.10;;
51529;SDS011;37613;51.788;21.582;2023-07-13T15:52:38;18.00;;;10.10;;
51529;SDS011;37613;51.788;21.582;2023-07-13T15:56:45;10.70;;;7.80;;
51529;SDS011;37613;51.788;21.582;2023-07-13T16:00:56;11.00;;;7.60;;
51529;SDS011;37613;51.788;21.582;2023-07-13T16:04:58;12.00;;;9.80;;
51529;SDS011;37613;51.788;21.582;2023-07-13T16:09:08;8.30;;;7.10;;
51529;SDS011;37613;51.788;21.582;2023-07-13T16:13:21;9.80;;;7.50;;
51529;SDS011;37613;51.788;21.582;2023-07-13T16:17:42;10.40;;;7.30;;
51529;SDS011;37613;51.788;21.582;2023-07-13T16:26:40;12.50;;;8.00;;
51529;SDS011;37613;51.788;21.582;2023-07-13T16:31:11;8.50;;;6.40;;
51529;SDS011;37613;51.788;21.582;2023-07-13T16:35:15;8.40;;;7.30;;
51529;SDS011;37613;51.788;21.582;2023-07-13T16:39:22;15.40;;;10.40;;
51529;SDS011;37613;51.788;21.582;2023-07-13T16:43:27;13.20;;;10.30;;
51529;SDS011;37613;51.788;21.582;2023-07-13T16:47:32;26.70;;;14.10;;
51529;SDS011;37613;51.788;21.582;2023-07-13T16:51:37;19.10;;;13.00;;
51529;SDS011;37613;51.788;21.582;2023-07-13T16:56:01;14.10;;;7.70;;
51529;SDS011;37613;51.788;21.582;2023-07-13T17:00:36;22.70;;;12.90;;
51529;SDS011;37613;51.788;21.582;2023-07-13T17:04:34;7.90;;;6.40;;
51529;SDS011;37613;51.788;21.582;2023-07-13T17:08:39;12.50;;;6.10;;
51529;SDS011;37613;51.788;21.582;2023-07-13T17:12:52;8.40;;;6.10;;
51529;SDS011;37613;51.788;21.582;2023-07-13T17:16:59;13.70;;;8.90;;
51529;SDS011;37613;51.788;21.582;2023-07-13T17:34:33;10.40;;;7.80;;
51529;SDS011;37613;51.788;21.582;2023-07-13T18:07:16;9.60;;;6.30;;
51529;SDS011;37613;51.788;21.582;2023-07-13T18:11:44;7.30;;;6.60;;
51529;SDS011;37613;51.788;21.582;2023-07-13T18:20:30;6.40;;;5.90;;
51529;SDS011;37613;51.788;21.582;2023-07-13T18:34:03;9.50;;;6.10;;
51529;SDS011;37613;51.788;21.582;2023-07-13T18:38:22;9.20;;;6.00;;
51529;SDS011;37613;51.788;21.582;2023-07-13T18:42:36;9.80;;;6.00;;
51529;SDS011;37613;51.788;21.582;2023-07-13T18:47:16;9.40;;;6.30;;
51529;SDS011;37613;51.788;21.582;2023-07-13T18:51:55;8.80;;;6.50;;
51529;SDS011;37613;51.788;21.582;2023-07-13T18:56:27;8.60;;;6.20;;
51529;SDS011;37613;51.788;21.582;2023-07-13T19:00:58;6.80;;;6.10;;
51529;SDS011;37613;51.788;21.582;2023-07-13T19:05:32;10.30;;;6.60;;
51529;SDS011;37613;51.788;21.582;2023-07-13T19:10:13;8.20;;;6.40;;
51529;SDS011;37613;51.788;21.582;2023-07-13T19:14:56;12.30;;;7.40;;
51529;SDS011;37613;51.788;21.582;2023-07-13T19:19:20;9.10;;;7.20;;
51529;SDS011;37613;51.788;21.582;2023-07-13T19:23:53;9.20;;;7.10;;
51529;SDS011;37613;51.788;21.582;2023-07-13T19:28:35;14.20;;;7.10;;
51529;SDS011;37613;51.788;21.582;2023-07-13T19:33:18;15.50;;;6.90;;
51529;SDS011;37613;51.788;21.582;2023-07-13T19:37:39;10.50;;;6.70;;
51529;SDS011;37613;51.788;21.582;2023-07-13T19:41:47;7.00;;;6.00;;
51529;SDS011;37613;51.788;21.582;2023-07-13T19:46:05;9.90;;;6.40;;
51529;SDS011;37613;51.788;21.582;2023-07-13T19:50:28;6.90;;;6.20;;
51529;SDS011;37613;51.788;21.582;2023-07-13T19:59:52;14.10;;;9.10;;
51529;SDS011;37613;51.788;21.582;2023-07-13T20:04:20;9.50;;;8.00;;
51529;SDS011;37613;51.788;21.582;2023-07-13T20:08:50;14.00;;;9.00;;
51529;SDS011;37613;51.788;21.582;2023-07-13T20:13:17;20.00;;;9.20;;
51529;SDS011;37613;51.788;21.582;2023-07-13T20:18:04;11.60;;;8.50;;
51529;SDS011;37613;51.788;21.582;2023-07-13T20:22:39;13.40;;;9.80;;
51529;SDS011;37613;51.788;21.582;2023-07-13T20:27:21;9.90;;;8.30;;
51529;SDS011;37613;51.788;21.582;2023-07-13T20:31:45;9.00;;;8.10;;
51529;SDS011;37613;51.788;21.582;2023-07-13T20:41:17;11.20;;;10.00;;
51529;SDS011;37613;51.788;21.582;2023-07-13T20:45:59;10.00;;;8.20;;
51529;SDS011;37613;51.788;21.582;2023-07-13T20:50:41;15.00;;;8.70;;
51529;SDS011;37613;51.788;21.582;2023-07-13T20:55:31;15.10;;;8.40;;
51529;SDS011;37613;51.788;21.582;2023-07-13T21:00:01;15.40;;;8.80;;
51529;SDS011;37613;51.788;21.582;2023-07-13T21:09:27;11.90;;;7.80;;
51529;SDS011;37613;51.788;21.582;2023-07-13T21:13:55;10.50;;;8.30;;
51529;SDS011;37613;51.788;21.582;2023-07-13T21:18:22;10.90;;;7.60;;
51529;SDS011;37613;51.788;21.582;2023-07-13T21:22:55;10.20;;;8.30;;
51529;SDS011;37613;51.788;21.582;2023-07-13T21:27:26;10.00;;;9.00;;
51529;SDS011;37613;51.788;21.582;2023-07-13T21:36:33;11.30;;;8.60;;
51529;SDS011;37613;51.788;21.582;2023-07-13T21:45:44;9.80;;;8.80;;
51529;SDS011;37613;51.788;21.582;2023-07-13T21:50:17;11.30;;;9.10;;
51529;SDS011;37613;51.788;21.582;2023-07-13T21:54:49;13.10;;;8.60;;
51529;SDS011;37613;51.788;21.582;2023-07-13T21:59:56;9.90;;;8.60;;
51529;SDS011;37613;51.788;21.582;2023-07-13T22:04:17;10.50;;;8.10;;
51529;SDS011;37613;51.788;21.582;2023-07-13T22:08:40;11.40;;;8.20;;
51529;SDS011;37613;51.788;21.582;2023-07-13T22:13:05;10.30;;;7.50;;
51529;SDS011;37613;51.788;21.582;2023-07-13T22:17:38;13.10;;;9.60;;
51529;SDS011;37613;51.788;21.582;2023-07-13T22:22:12;11.30;;;8.50;;
51529;SDS011;37613;51.788;21.582;2023-07-13T22:26:51;9.90;;;8.90;;
51529;SDS011;37613;51.788;21.582;2023-07-13T22:31:39;11.70;;;8.90;;
51529;SDS011;37613;51.788;21.582;2023-07-13T22:36:23;11.80;;;8.80;;
51529;SDS011;37613;51.788;21.582;2023-07-13T22:42:00;10.90;;;8.80;;
51529;SDS011;37613;51.788;21.582;2023-07-13T22:46:43;10.20;;;8.40;;
51529;SDS011;37613;51.788;21.582;2023-07-13T22:51:44;10.00;;;8.50;;
51529;SDS011;37613;51.788;21.582;2023-07-13T22:56:04;11.20;;;9.30;;
51529;SDS011;37613;51.788;21.582;2023-07-13T23:00:35;9.90;;;8.90;;
51529;SDS011;37613;51.788;21.582;2023-07-13T23:05:28;10.00;;;9.00;;
51529;SDS011;37613;51.788;21.582;2023-07-13T23:10:42;9.80;;;8.70;;
51529;SDS011;37613;51.788;21.582;2023-07-13T23:15:08;10.20;;;9.00;;
51529;SDS011;37613;51.788;21.582;2023-07-13T23:19:50;10.30;;;8.50;;
51529;SDS011;37613;51.788;21.582;2023-07-13T23:24:32;10.60;;;9.10;;
51529;SDS011;37613;51.788;21.582;2023-07-13T23:29:30;14.00;;;9.00;;
51529;SDS011;37613;51.788;21.582;2023-07-13T23:34:01;14.20;;;9.10;;
51529;SDS011;37613;51.788;21.582;2023-07-13T23:38:37;12.70;;;9.70;;
51529;SDS011;37613;51.788;21.582;2023-07-13T23:43:02;9.80;;;8.70;;
51529;SDS011;37613;51.788;21.582;2023-07-13T23:47:25;10.40;;;9.30;;
51529;SDS011;37613;51.788;21.582;2023-07-13T23:51:55;12.10;;;9.90;;
51529;SDS011;37613;51.788;21.582;2023-07-13T23:56:17;11.60;;;10.20;;
